sensor_id;sensor_type;location;lat;lon;timestamp;P1;durP1;ratioP1;P2;durP2;ratioP2
6386;SDS011;3226;42.162;24.756;2022-09-06T00:00:27;8.07;;;7.70;;
6386;SDS011;3226;42.162;24.756;2022-09-06T00:02:56;8.07;;;7.73;;
6386;SDS011;3226;42.162;24.756;2022-09-06T00:05:25;8.23;;;7.83;;
6386;SDS011;3226;42.162;24.756;2022-09-06T00:07:53;8.30;;;7.90;;
6386;SDS011;3226;42.162;24.756;2022-09-06T00:10:22;9.07;;;8.67;;
6386;SDS011;3226;42.162;24.756;2022-09-06T00:12:51;9.23;;;8.83;;
6386;SDS011;3226;42.162;24.756;2022-09-06T00:15:19;9.43;;;9.03;;
6386;SDS011;3226;42.162;24.756;2022-09-06T00:17:48;10.40;;;9.90;;
6386;SDS011;3226;42.162;24.756;2022-09-06T00:20:17;9.00;;;8.60;;
6386;SDS011;3226;42.162;24.756;2022-09-06T00:22:45;8.60;;;8.20;;
6386;SDS011;3226;42.162;24.756;2022-09-06T00:25:13;8.87;;;8.47;;
6386;SDS011;3226;42.162;24.756;2022-09-06T00:27:43;8.40;;;8.00;;
6386;SDS011;3226;42.162;24.756;2022-09-06T00:30:11;8.83;;;8.43;;
6386;SDS011;3226;42.162;24.756;2022-09-06T00:32:40;9.60;;;9.20;;
6386;SDS011;3226;42.162;24.756;2022-09-06T00:35:08;9.33;;;8.93;;
6386;SDS011;3226;42.162;24.756;2022-09-06T00:37:36;8.20;;;7.80;;
6386;SDS011;3226;42.162;24.756;2022-09-06T00:40:05;8.00;;;7.67;;
6386;SDS011;3226;42.162;24.756;2022-09-06T00:42:34;8.00;;;7.70;;
6386;SDS011;3226;42.162;24.756;2022-09-06T00:45:04;8.27;;;7.87;;
6386;SDS011;3226;42.162;24.756;2022-09-06T00:47:34;7.23;;;6.93;;
6386;SDS011;3226;42.162;24.756;2022-09-06T00:50:05;8.33;;;7.93;;
6386;SDS011;3226;42.162;24.756;2022-09-06T00:52:35;7.53;;;7.23;;
6386;SDS011;3226;42.162;24.756;2022-09-06T00:55:06;7.70;;;7.40;;
6386;SDS011;3226;42.162;24.756;2022-09-06T00:57:35;7.73;;;7.43;;
6386;SDS011;3226;42.162;24.756;2022-09-06T01:00:06;8.37;;;7.97;;
6386;SDS011;3226;42.162;24.756;2022-09-06T01:02:37;8.53;;;8.13;;
6386;SDS011;3226;42.162;24.756;2022-09-06T01:05:05;8.50;;;8.10;;
6386;SDS011;3226;42.162;24.756;2022-09-06T01:07:38;8.03;;;7.73;;
6386;SDS011;3226;42.162;24.756;2022-09-06T01:10:30;7.93;;;7.63;;
6386;SDS011;3226;42.162;24.756;2022-09-06T01:13:13;8.77;;;8.37;;
6386;SDS011;3226;42.162;24.756;2022-09-06T01:15:52;8.30;;;7.90;;
6386;SDS011;3226;42.162;24.756;2022-09-06T01:18:29;8.07;;;7.77;;
6386;SDS011;3226;42.162;24.756;2022-09-06T01:21:09;9.20;;;8.70;;
6386;SDS011;3226;42.162;24.756;2022-09-06T01:23:54;7.87;;;7.57;;
6386;SDS011;3226;42.162;24.756;2022-09-06T01:26:51;8.37;;;7.97;;
6386;SDS011;3226;42.162;24.756;2022-09-06T01:29:48;8.57;;;8.17;;
6386;SDS011;3226;42.162;24.756;2022-09-06T01:32:19;8.70;;;8.30;;
6386;SDS011;3226;42.162;24.756;2022-09-06T01:34:57;8.80;;;8.40;;
6386;SDS011;3226;42.162;24.756;2022-09-06T01:37:32;8.10;;;7.80;;
6386;SDS011;3226;42.162;24.756;2022-09-06T01:40:00;9.37;;;8.97;;
6386;SDS011;3226;42.162;24.756;2022-09-06T01:42:29;11.30;;;10.80;;
6386;SDS011;3226;42.162;24.756;2022-09-06T01:45:02;12.07;;;11.47;;
6386;SDS011;3226;42.162;24.756;2022-09-06T01:47:35;11.60;;;11.10;;
6386;SDS011;3226;42.162;24.756;2022-09-06T01:50:14;9.77;;;9.37;;
6386;SDS011;3226;42.162;24.756;2022-09-06T01:52:58;9.40;;;9.00;;
6386;SDS011;3226;42.162;24.756;2022-09-06T01:55:39;10.47;;;10.00;;
6386;SDS011;3226;42.162;24.756;2022-09-06T01:58:28;9.80;;;9.40;;
6386;SDS011;3226;42.162;24.756;2022-09-06T02:01:08;8.80;;;8.40;;
6386;SDS011;3226;42.162;24.756;2022-09-06T02:03:47;8.67;;;8.27;;
6386;SDS011;3226;42.162;24.756;2022-09-06T02:06:23;8.93;;;8.53;;
6386;SDS011;3226;42.162;24.756;2022-09-06T02:08:56;8.47;;;8.07;;
6386;SDS011;3226;42.162;24.756;2022-09-06T02:11:30;8.80;;;8.40;;
6386;SDS011;3226;42.162;24.756;2022-09-06T02:14:05;8.77;;;8.37;;
6386;SDS011;3226;42.162;24.756;2022-09-06T02:16:38;8.30;;;7.90;;
6386;SDS011;3226;42.162;24.756;2022-09-06T02:19:11;8.50;;;8.10;;
6386;SDS011;3226;42.162;24.756;2022-09-06T02:21:44;7.83;;;7.53;;
6386;SDS011;3226;42.162;24.756;2022-09-06T02:24:14;8.80;;;8.40;;
6386;SDS011;3226;42.162;24.756;2022-09-06T02:26:46;8.67;;;8.27;;
6386;SDS011;3226;42.162;24.756;2022-09-06T02:29:15;7.90;;;7.60;;
6386;SDS011;3226;42.162;24.756;2022-09-06T02:31:47;7.63;;;7.33;;
6386;SDS011;3226;42.162;24.756;2022-09-06T02:34:20;8.63;;;8.23;;
6386;SDS011;3226;42.162;24.756;2022-09-06T02:36:49;7.47;;;7.17;;
6386;SDS011;3226;42.162;24.756;2022-09-06T02:39:17;7.93;;;7.63;;
6386;SDS011;3226;42.162;24.756;2022-09-06T02:41:46;7.70;;;7.40;;
6386;SDS011;3226;42.162;24.756;2022-09-06T02:44:15;8.17;;;7.87;;
6386;SDS011;3226;42.162;24.756;2022-09-06T02:46:43;7.30;;;7.00;;
6386;SDS011;3226;42.162;24.756;2022-09-06T02:49:12;7.83;;;7.53;;
6386;SDS011;3226;42.162;24.756;2022-09-06T02:51:40;8.10;;;7.77;;
6386;SDS011;3226;42.162;24.756;2022-09-06T02:54:08;7.83;;;7.53;;
6386;SDS011;3226;42.162;24.756;2022-09-06T02:56:37;8.67;;;8.27;;
6386;SDS011;3226;42.162;24.756;2022-09-06T02:59:05;7.87;;;7.57;;
6386;SDS011;3226;42.162;24.756;2022-09-06T03:01:33;7.93;;;7.63;;
6386;SDS011;3226;42.162;24.756;2022-09-06T03:04:01;9.50;;;9.10;;
6386;SDS011;3226;42.162;24.756;2022-09-06T03:06:31;8.40;;;8.00;;
6386;SDS011;3226;42.162;24.756;2022-09-06T03:09:00;7.77;;;7.47;;
6386;SDS011;3226;42.162;24.756;2022-09-06T03:11:28;7.70;;;7.40;;
6386;SDS011;3226;42.162;24.756;2022-09-06T03:13:57;8.70;;;8.30;;
6386;SDS011;3226;42.162;24.756;2022-09-06T03:16:25;10.10;;;9.70;;
6386;SDS011;3226;42.162;24.756;2022-09-06T03:18:54;9.30;;;8.90;;
6386;SDS011;3226;42.162;24.756;2022-09-06T03:21:22;8.37;;;7.97;;
6386;SDS011;3226;42.162;24.756;2022-09-06T03:23:52;9.77;;;9.37;;
6386;SDS011;3226;42.162;24.756;2022-09-06T03:26:20;8.03;;;7.73;;
6386;SDS011;3226;42.162;24.756;2022-09-06T03:28:48;8.23;;;7.83;;
6386;SDS011;3226;42.162;24.756;2022-09-06T03:31:17;9.30;;;8.90;;
6386;SDS011;3226;42.162;24.756;2022-09-06T03:33:45;8.23;;;7.83;;
6386;SDS011;3226;42.162;24.756;2022-09-06T03:36:13;7.60;;;7.30;;
6386;SDS011;3226;42.162;24.756;2022-09-06T03:38:42;8.57;;;8.17;;
6386;SDS011;3226;42.162;24.756;2022-09-06T03:41:12;7.67;;;7.37;;
6386;SDS011;3226;42.162;24.756;2022-09-06T03:43:40;7.80;;;7.50;;
6386;SDS011;3226;42.162;24.756;2022-09-06T03:46:08;7.93;;;7.60;;
6386;SDS011;3226;42.162;24.756;2022-09-06T03:48:36;7.27;;;6.97;;
6386;SDS011;3226;42.162;24.756;2022-09-06T03:51:05;9.10;;;8.70;;
6386;SDS011;3226;42.162;24.756;2022-09-06T03:53:33;8.90;;;8.50;;
6386;SDS011;3226;42.162;24.756;2022-09-06T03:56:01;7.40;;;7.10;;
6386;SDS011;3226;42.162;24.756;2022-09-06T03:58:32;7.83;;;7.53;;
6386;SDS011;3226;42.162;24.756;2022-09-06T04:01:01;8.67;;;8.27;;
6386;SDS011;3226;42.162;24.756;2022-09-06T04:03:31;11.47;;;10.97;;
6386;SDS011;3226;42.162;24.756;2022-09-06T04:06:00;12.87;;;12.27;;
6386;SDS011;3226;42.162;24.756;2022-09-06T04:08:29;16.80;;;16.00;;
6386;SDS011;3226;42.162;24.756;2022-09-06T04:10:57;18.13;;;17.33;;
6386;SDS011;3226;42.162;24.756;2022-09-06T04:13:26;19.83;;;18.90;;
6386;SDS011;3226;42.162;24.756;2022-09-06T04:15:56;16.57;;;15.80;;
6386;SDS011;3226;42.162;24.756;2022-09-06T04:18:25;14.73;;;14.03;;
6386;SDS011;3226;42.162;24.756;2022-09-06T04:20:53;9.10;;;8.70;;
6386;SDS011;3226;42.162;24.756;2022-09-06T04:23:22;8.63;;;8.23;;
6386;SDS011;3226;42.162;24.756;2022-09-06T04:25:52;9.30;;;8.90;;
6386;SDS011;3226;42.162;24.756;2022-09-06T04:28:22;9.30;;;8.90;;
6386;SDS011;3226;42.162;24.756;2022-09-06T04:30:52;8.83;;;8.43;;
6386;SDS011;3226;42.162;24.756;2022-09-06T04:33:27;8.47;;;8.07;;
6386;SDS011;3226;42.162;24.756;2022-09-06T04:35:57;8.83;;;8.43;;
6386;SDS011;3226;42.162;24.756;2022-09-06T04:38:27;8.53;;;8.13;;
6386;SDS011;3226;42.162;24.756;2022-09-06T04:40:56;8.63;;;8.23;;
6386;SDS011;3226;42.162;24.756;2022-09-06T04:43:25;7.87;;;7.57;;
6386;SDS011;3226;42.162;24.756;2022-09-06T04:45:53;7.73;;;7.43;;
6386;SDS011;3226;42.162;24.756;2022-09-06T04:48:21;7.83;;;7.47;;
6386;SDS011;3226;42.162;24.756;2022-09-06T04:50:51;8.53;;;8.13;;
6386;SDS011;3226;42.162;24.756;2022-09-06T04:53:19;10.53;;;10.03;;
6386;SDS011;3226;42.162;24.756;2022-09-06T04:55:47;12.43;;;11.87;;
6386;SDS011;3226;42.162;24.756;2022-09-06T04:58:15;8.77;;;8.37;;
6386;SDS011;3226;42.162;24.756;2022-09-06T05:00:43;8.03;;;7.70;;
6386;SDS011;3226;42.162;24.756;2022-09-06T05:03:13;8.37;;;7.97;;
6386;SDS011;3226;42.162;24.756;2022-09-06T05:05:42;8.20;;;7.80;;
6386;SDS011;3226;42.162;24.756;2022-09-06T05:08:11;8.17;;;7.80;;
6386;SDS011;3226;42.162;24.756;2022-09-06T05:10:39;8.10;;;7.80;;
6386;SDS011;3226;42.162;24.756;2022-09-06T05:13:07;7.83;;;7.53;;
6386;SDS011;3226;42.162;24.756;2022-09-06T05:15:36;7.83;;;7.53;;
6386;SDS011;3226;42.162;24.756;2022-09-06T05:18:04;7.90;;;7.60;;
6386;SDS011;3226;42.162;24.756;2022-09-06T05:20:32;8.60;;;8.20;;
6386;SDS011;3226;42.162;24.756;2022-09-06T05:23:00;11.80;;;11.30;;
6386;SDS011;3226;42.162;24.756;2022-09-06T05:25:30;11.20;;;10.70;;
6386;SDS011;3226;42.162;24.756;2022-09-06T05:27:58;10.80;;;10.30;;
6386;SDS011;3226;42.162;24.756;2022-09-06T05:30:26;9.37;;;8.97;;
6386;SDS011;3226;42.162;24.756;2022-09-06T05:32:54;8.90;;;8.50;;
6386;SDS011;3226;42.162;24.756;2022-09-06T05:35:22;7.87;;;7.57;;
6386;SDS011;3226;42.162;24.756;2022-09-06T05:37:51;8.60;;;8.20;;
6386;SDS011;3226;42.162;24.756;2022-09-06T05:40:19;9.80;;;9.40;;
6386;SDS011;3226;42.162;24.756;2022-09-06T05:42:49;7.50;;;7.20;;
6386;SDS011;3226;42.162;24.756;2022-09-06T05:45:17;7.70;;;7.40;;
6386;SDS011;3226;42.162;24.756;2022-09-06T05:47:45;8.10;;;7.77;;
6386;SDS011;3226;42.162;24.756;2022-09-06T05:50:13;7.80;;;7.50;;
6386;SDS011;3226;42.162;24.756;2022-09-06T05:52:42;8.33;;;7.93;;
6386;SDS011;3226;42.162;24.756;2022-09-06T05:55:10;8.33;;;7.93;;
6386;SDS011;3226;42.162;24.756;2022-09-06T05:57:38;7.67;;;7.37;;
6386;SDS011;3226;42.162;24.756;2022-09-06T06:00:08;9.27;;;8.87;;
6386;SDS011;3226;42.162;24.756;2022-09-06T06:02:37;8.60;;;8.20;;
6386;SDS011;3226;42.162;24.756;2022-09-06T06:05:06;8.77;;;8.37;;
6386;SDS011;3226;42.162;24.756;2022-09-06T06:07:35;10.03;;;9.60;;
6386;SDS011;3226;42.162;24.756;2022-09-06T06:10:03;9.53;;;8.93;;
6386;SDS011;3226;42.162;24.756;2022-09-06T06:12:32;8.97;;;8.57;;
6386;SDS011;3226;42.162;24.756;2022-09-06T06:15:00;9.23;;;8.83;;
6386;SDS011;3226;42.162;24.756;2022-09-06T06:17:32;10.13;;;9.63;;
6386;SDS011;3226;42.162;24.756;2022-09-06T06:20:01;9.83;;;9.40;;
6386;SDS011;3226;42.162;24.756;2022-09-06T06:22:29;9.00;;;8.60;;
6386;SDS011;3226;42.162;24.756;2022-09-06T06:24:58;7.33;;;7.03;;
6386;SDS011;3226;42.162;24.756;2022-09-06T06:27:26;8.63;;;8.23;;
6386;SDS011;3226;42.162;24.756;2022-09-06T06:29:54;8.67;;;8.27;;
6386;SDS011;3226;42.162;24.756;2022-09-06T06:32:22;7.83;;;7.53;;
6386;SDS011;3226;42.162;24.756;2022-09-06T06:34:52;7.53;;;7.23;;
6386;SDS011;3226;42.162;24.756;2022-09-06T06:37:20;8.80;;;8.40;;
6386;SDS011;3226;42.162;24.756;2022-09-06T06:39:48;8.80;;;8.40;;
6386;SDS011;3226;42.162;24.756;2022-09-06T06:42:16;8.07;;;7.67;;
6386;SDS011;3226;42.162;24.756;2022-09-06T06:44:44;8.73;;;8.23;;
6386;SDS011;3226;42.162;24.756;2022-09-06T06:47:12;9.40;;;9.00;;
6386;SDS011;3226;42.162;24.756;2022-09-06T06:49:40;8.13;;;7.77;;
6386;SDS011;3226;42.162;24.756;2022-09-06T06:52:10;7.97;;;7.63;;
6386;SDS011;3226;42.162;24.756;2022-09-06T06:54:38;8.30;;;7.93;;
6386;SDS011;3226;42.162;24.756;2022-09-06T06:57:06;9.17;;;8.77;;
6386;SDS011;3226;42.162;24.756;2022-09-06T06:59:35;9.03;;;8.63;;
6386;SDS011;3226;42.162;24.756;2022-09-06T07:02:05;8.37;;;7.97;;
6386;SDS011;3226;42.162;24.756;2022-09-06T07:04:33;7.80;;;7.50;;
6386;SDS011;3226;42.162;24.756;2022-09-06T07:07:02;9.07;;;8.67;;
6386;SDS011;3226;42.162;24.756;2022-09-06T07:09:52;7.93;;;7.60;;
6386;SDS011;3226;42.162;24.756;2022-09-06T07:12:40;7.50;;;7.10;;
6386;SDS011;3226;42.162;24.756;2022-09-06T07:15:08;9.67;;;9.27;;
6386;SDS011;3226;42.162;24.756;2022-09-06T07:17:36;12.43;;;11.87;;
6386;SDS011;3226;42.162;24.756;2022-09-06T07:20:05;14.27;;;13.60;;
6386;SDS011;3226;42.162;24.756;2022-09-06T07:22:38;11.60;;;11.10;;
6386;SDS011;3226;42.162;24.756;2022-09-06T07:25:08;8.67;;;8.27;;
6386;SDS011;3226;42.162;24.756;2022-09-06T07:27:42;7.70;;;7.33;;
6386;SDS011;3226;42.162;24.756;2022-09-06T07:30:14;8.20;;;7.80;;
6386;SDS011;3226;42.162;24.756;2022-09-06T07:32:42;11.00;;;10.50;;
6386;SDS011;3226;42.162;24.756;2022-09-06T07:35:10;10.03;;;9.63;;
6386;SDS011;3226;42.162;24.756;2022-09-06T07:37:39;10.13;;;9.70;;
6386;SDS011;3226;42.162;24.756;2022-09-06T07:40:09;8.37;;;7.97;;
6386;SDS011;3226;42.162;24.756;2022-09-06T07:42:38;8.10;;;7.80;;
6386;SDS011;3226;42.162;24.756;2022-09-06T07:45:07;7.97;;;7.67;;
6386;SDS011;3226;42.162;24.756;2022-09-06T07:47:35;8.50;;;8.10;;
6386;SDS011;3226;42.162;24.756;2022-09-06T07:50:24;7.60;;;7.30;;
6386;SDS011;3226;42.162;24.756;2022-09-06T07:53:12;7.83;;;7.53;;
6386;SDS011;3226;42.162;24.756;2022-09-06T07:55:58;7.37;;;7.07;;
6386;SDS011;3226;42.162;24.756;2022-09-06T07:58:27;7.57;;;7.27;;
6386;SDS011;3226;42.162;24.756;2022-09-06T08:03:43;8.70;;;8.30;;
6386;SDS011;3226;42.162;24.756;2022-09-06T08:06:12;7.90;;;7.60;;
6386;SDS011;3226;42.162;24.756;2022-09-06T08:08:41;8.07;;;7.77;;
6386;SDS011;3226;42.162;24.756;2022-09-06T08:11:27;9.57;;;9.17;;
6386;SDS011;3226;42.162;24.756;2022-09-06T08:13:57;8.53;;;8.13;;
6386;SDS011;3226;42.162;24.756;2022-09-06T08:16:27;7.90;;;7.50;;
6386;SDS011;3226;42.162;24.756;2022-09-06T08:18:57;8.33;;;7.93;;
6386;SDS011;3226;42.162;24.756;2022-09-06T08:21:26;8.40;;;8.00;;
6386;SDS011;3226;42.162;24.756;2022-09-06T08:23:58;7.23;;;6.93;;
6386;SDS011;3226;42.162;24.756;2022-09-06T08:26:29;7.47;;;7.17;;
6386;SDS011;3226;42.162;24.756;2022-09-06T08:28:58;7.27;;;6.97;;
6386;SDS011;3226;42.162;24.756;2022-09-06T08:31:28;9.77;;;9.30;;
6386;SDS011;3226;42.162;24.756;2022-09-06T08:33:57;8.30;;;7.90;;
6386;SDS011;3226;42.162;24.756;2022-09-06T08:36:27;7.13;;;6.83;;
6386;SDS011;3226;42.162;24.756;2022-09-06T08:38:56;8.23;;;7.87;;
6386;SDS011;3226;42.162;24.756;2022-09-06T08:41:24;9.87;;;9.40;;
6386;SDS011;3226;42.162;24.756;2022-09-06T08:43:57;6.70;;;6.40;;
6386;SDS011;3226;42.162;24.756;2022-09-06T08:46:54;7.90;;;7.57;;
6386;SDS011;3226;42.162;24.756;2022-09-06T08:49:24;8.80;;;8.40;;
6386;SDS011;3226;42.162;24.756;2022-09-06T08:54:53;7.17;;;6.87;;
6386;SDS011;3226;42.162;24.756;2022-09-06T08:57:30;8.33;;;7.93;;
6386;SDS011;3226;42.162;24.756;2022-09-06T09:00:09;8.53;;;8.13;;
6386;SDS011;3226;42.162;24.756;2022-09-06T09:02:41;8.70;;;8.23;;
6386;SDS011;3226;42.162;24.756;2022-09-06T09:05:21;8.60;;;8.20;;
6386;SDS011;3226;42.162;24.756;2022-09-06T09:07:56;7.40;;;7.10;;
6386;SDS011;3226;42.162;24.756;2022-09-06T09:10:33;7.57;;;7.27;;
6386;SDS011;3226;42.162;24.756;2022-09-06T09:13:08;7.73;;;7.43;;
6386;SDS011;3226;42.162;24.756;2022-09-06T09:15:53;6.93;;;6.63;;
6386;SDS011;3226;42.162;24.756;2022-09-06T09:18:24;7.53;;;7.13;;
6386;SDS011;3226;42.162;24.756;2022-09-06T09:20:54;8.63;;;8.23;;
6386;SDS011;3226;42.162;24.756;2022-09-06T09:23:24;9.70;;;9.30;;
6386;SDS011;3226;42.162;24.756;2022-09-06T09:25:52;8.63;;;8.23;;
6386;SDS011;3226;42.162;24.756;2022-09-06T09:28:26;7.73;;;7.43;;
6386;SDS011;3226;42.162;24.756;2022-09-06T09:30:56;8.90;;;8.50;;
6386;SDS011;3226;42.162;24.756;2022-09-06T09:33:26;7.93;;;7.63;;
6386;SDS011;3226;42.162;24.756;2022-09-06T09:35:57;9.47;;;9.07;;
6386;SDS011;3226;42.162;24.756;2022-09-06T09:38:28;7.33;;;7.03;;
6386;SDS011;3226;42.162;24.756;2022-09-06T09:40:59;8.20;;;7.90;;
6386;SDS011;3226;42.162;24.756;2022-09-06T09:43:30;9.03;;;8.43;;
6386;SDS011;3226;42.162;24.756;2022-09-06T09:46:11;7.53;;;7.23;;
6386;SDS011;3226;42.162;24.756;2022-09-06T09:48:43;8.17;;;7.80;;
6386;SDS011;3226;42.162;24.756;2022-09-06T09:51:26;7.77;;;7.47;;
6386;SDS011;3226;42.162;24.756;2022-09-06T09:53:56;8.85;;;8.15;;
6386;SDS011;3226;42.162;24.756;2022-09-06T09:56:36;7.70;;;7.30;;
6386;SDS011;3226;42.162;24.756;2022-09-06T09:59:16;8.63;;;8.23;;
6386;SDS011;3226;42.162;24.756;2022-09-06T10:01:50;7.43;;;7.13;;
6386;SDS011;3226;42.162;24.756;2022-09-06T10:04:24;11.10;;;8.37;;
6386;SDS011;3226;42.162;24.756;2022-09-06T10:07:13;8.53;;;8.13;;
6386;SDS011;3226;42.162;24.756;2022-09-06T10:09:44;8.57;;;8.17;;
6386;SDS011;3226;42.162;24.756;2022-09-06T10:12:15;7.43;;;7.13;;
6386;SDS011;3226;42.162;24.756;2022-09-06T10:14:45;9.03;;;8.63;;
6386;SDS011;3226;42.162;24.756;2022-09-06T10:17:20;9.70;;;9.30;;
6386;SDS011;3226;42.162;24.756;2022-09-06T10:19:56;8.90;;;8.50;;
6386;SDS011;3226;42.162;24.756;2022-09-06T10:22:29;9.60;;;9.20;;
6386;SDS011;3226;42.162;24.756;2022-09-06T10:33:57;8.90;;;8.50;;
6386;SDS011;3226;42.162;24.756;2022-09-06T10:36:32;8.00;;;7.63;;
6386;SDS011;3226;42.162;24.756;2022-09-06T10:39:03;8.93;;;8.53;;
6386;SDS011;3226;42.162;24.756;2022-09-06T10:41:41;7.97;;;7.63;;
6386;SDS011;3226;42.162;24.756;2022-09-06T10:44:22;8.40;;;8.00;;
6386;SDS011;3226;42.162;24.756;2022-09-06T10:47:04;9.30;;;8.90;;
6386;SDS011;3226;42.162;24.756;2022-09-06T10:49:39;8.03;;;7.73;;
6386;SDS011;3226;42.162;24.756;2022-09-06T10:52:12;9.20;;;8.77;;
6386;SDS011;3226;42.162;24.756;2022-09-06T10:54:43;8.67;;;8.27;;
6386;SDS011;3226;42.162;24.756;2022-09-06T10:57:15;7.13;;;6.83;;
6386;SDS011;3226;42.162;24.756;2022-09-06T11:00:08;10.17;;;9.67;;
6386;SDS011;3226;42.162;24.756;2022-09-06T11:02:41;8.88;;;8.48;;
6386;SDS011;3226;42.162;24.756;2022-09-06T11:05:39;9.13;;;8.73;;
6386;SDS011;3226;42.162;24.756;2022-09-06T11:08:12;8.33;;;7.93;;
6386;SDS011;3226;42.162;24.756;2022-09-06T11:11:13;8.57;;;8.17;;
6386;SDS011;3226;42.162;24.756;2022-09-06T11:13:46;7.10;;;6.80;;
6386;SDS011;3226;42.162;24.756;2022-09-06T11:16:15;8.37;;;7.97;;
6386;SDS011;3226;42.162;24.756;2022-09-06T11:18:50;8.77;;;8.37;;
6386;SDS011;3226;42.162;24.756;2022-09-06T11:21:36;8.37;;;7.97;;
6386;SDS011;3226;42.162;24.756;2022-09-06T11:24:20;8.53;;;8.13;;
6386;SDS011;3226;42.162;24.756;2022-09-06T11:27:00;8.87;;;8.47;;
6386;SDS011;3226;42.162;24.756;2022-09-06T11:29:33;7.83;;;7.53;;
6386;SDS011;3226;42.162;24.756;2022-09-06T11:32:24;9.13;;;8.70;;
6386;SDS011;3226;42.162;24.756;2022-09-06T11:34:59;7.60;;;7.30;;
6386;SDS011;3226;42.162;24.756;2022-09-06T11:37:31;7.37;;;7.07;;
6386;SDS011;3226;42.162;24.756;2022-09-06T11:40:04;9.10;;;8.70;;
6386;SDS011;3226;42.162;24.756;2022-09-06T11:43:14;9.43;;;9.03;;
6386;SDS011;3226;42.162;24.756;2022-09-06T11:45:45;8.43;;;8.03;;
6386;SDS011;3226;42.162;24.756;2022-09-06T11:51:32;9.33;;;8.90;;
6386;SDS011;3226;42.162;24.756;2022-09-06T11:54:05;9.13;;;8.73;;
6386;SDS011;3226;42.162;24.756;2022-09-06T11:56:49;8.40;;;8.00;;
6386;SDS011;3226;42.162;24.756;2022-09-06T11:59:30;9.53;;;9.13;;
6386;SDS011;3226;42.162;24.756;2022-09-06T12:02:03;8.77;;;8.37;;
6386;SDS011;3226;42.162;24.756;2022-09-06T12:11:00;8.70;;;8.30;;
6386;SDS011;3226;42.162;24.756;2022-09-06T12:13:34;7.70;;;7.40;;
6386;SDS011;3226;42.162;24.756;2022-09-06T12:16:07;7.63;;;7.33;;
6386;SDS011;3226;42.162;24.756;2022-09-06T12:18:52;7.70;;;7.40;;
6386;SDS011;3226;42.162;24.756;2022-09-06T12:21:32;8.50;;;8.10;;
6386;SDS011;3226;42.162;24.756;2022-09-06T12:24:49;7.80;;;7.50;;
6386;SDS011;3226;42.162;24.756;2022-09-06T12:27:20;8.93;;;8.53;;
6386;SDS011;3226;42.162;24.756;2022-09-06T12:29:49;8.30;;;7.90;;
6386;SDS011;3226;42.162;24.756;2022-09-06T12:32:23;8.17;;;7.77;;
6386;SDS011;3226;42.162;24.756;2022-09-06T12:34:54;8.30;;;7.90;;
6386;SDS011;3226;42.162;24.756;2022-09-06T12:37:48;8.43;;;8.03;;
6386;SDS011;3226;42.162;24.756;2022-09-06T12:40:18;8.53;;;8.13;;
6386;SDS011;3226;42.162;24.756;2022-09-06T12:42:48;9.30;;;8.90;;
6386;SDS011;3226;42.162;24.756;2022-09-06T12:45:18;8.23;;;7.83;;
6386;SDS011;3226;42.162;24.756;2022-09-06T12:48:02;8.77;;;8.37;;
6386;SDS011;3226;42.162;24.756;2022-09-06T12:50:31;11.50;;;11.00;;
6386;SDS011;3226;42.162;24.756;2022-09-06T12:53:00;11.40;;;10.90;;
6386;SDS011;3226;42.162;24.756;2022-09-06T12:55:30;10.20;;;9.77;;
6386;SDS011;3226;42.162;24.756;2022-09-06T12:58:02;9.30;;;8.90;;
6386;SDS011;3226;42.162;24.756;2022-09-06T13:00:33;9.00;;;8.60;;
6386;SDS011;3226;42.162;24.756;2022-09-06T13:03:12;8.73;;;8.33;;
6386;SDS011;3226;42.162;24.756;2022-09-06T13:05:52;9.73;;;9.33;;
6386;SDS011;3226;42.162;24.756;2022-09-06T13:08:23;9.03;;;8.63;;
6386;SDS011;3226;42.162;24.756;2022-09-06T13:10:55;10.63;;;10.13;;
6386;SDS011;3226;42.162;24.756;2022-09-06T13:13:25;10.27;;;9.77;;
6386;SDS011;3226;42.162;24.756;2022-09-06T13:15:54;9.27;;;8.87;;
6386;SDS011;3226;42.162;24.756;2022-09-06T13:18:23;9.57;;;9.07;;
6386;SDS011;3226;42.162;24.756;2022-09-06T13:21:00;7.50;;;7.20;;
6386;SDS011;3226;42.162;24.756;2022-09-06T13:23:29;7.87;;;7.53;;
6386;SDS011;3226;42.162;24.756;2022-09-06T13:26:07;7.40;;;7.10;;
6386;SDS011;3226;42.162;24.756;2022-09-06T13:28:37;8.33;;;7.93;;
6386;SDS011;3226;42.162;24.756;2022-09-06T13:31:06;7.43;;;7.13;;
6386;SDS011;3226;42.162;24.756;2022-09-06T13:33:36;8.50;;;8.10;;
6386;SDS011;3226;42.162;24.756;2022-09-06T13:36:06;7.83;;;7.47;;
6386;SDS011;3226;42.162;24.756;2022-09-06T13:38:50;7.47;;;7.17;;
6386;SDS011;3226;42.162;24.756;2022-09-06T13:41:37;8.63;;;8.23;;
6386;SDS011;3226;42.162;24.756;2022-09-06T13:44:17;8.37;;;7.97;;
6386;SDS011;3226;42.162;24.756;2022-09-06T13:46:50;7.83;;;7.53;;
6386;SDS011;3226;42.162;24.756;2022-09-06T13:49:20;8.63;;;8.23;;
6386;SDS011;3226;42.162;24.756;2022-09-06T13:51:50;8.30;;;7.90;;
6386;SDS011;3226;42.162;24.756;2022-09-06T13:54:19;9.67;;;9.27;;
6386;SDS011;3226;42.162;24.756;2022-09-06T13:56:49;6.73;;;6.43;;
6386;SDS011;3226;42.162;24.756;2022-09-06T13:59:19;7.97;;;7.60;;
6386;SDS011;3226;42.162;24.756;2022-09-06T14:01:48;8.27;;;7.87;;
6386;SDS011;3226;42.162;24.756;2022-09-06T14:04:23;7.63;;;7.33;;
6386;SDS011;3226;42.162;24.756;2022-09-06T14:06:52;8.30;;;7.90;;
6386;SDS011;3226;42.162;24.756;2022-09-06T14:09:20;8.47;;;8.07;;
6386;SDS011;3226;42.162;24.756;2022-09-06T14:11:48;9.33;;;8.93;;
6386;SDS011;3226;42.162;24.756;2022-09-06T14:14:16;9.37;;;8.97;;
6386;SDS011;3226;42.162;24.756;2022-09-06T14:16:46;8.20;;;7.80;;
6386;SDS011;3226;42.162;24.756;2022-09-06T14:19:14;9.87;;;9.40;;
6386;SDS011;3226;42.162;24.756;2022-09-06T14:21:43;9.57;;;9.17;;
6386;SDS011;3226;42.162;24.756;2022-09-06T14:24:11;9.30;;;8.90;;
6386;SDS011;3226;42.162;24.756;2022-09-06T14:26:39;9.63;;;9.23;;
6386;SDS011;3226;42.162;24.756;2022-09-06T14:29:07;8.70;;;8.30;;
6386;SDS011;3226;42.162;24.756;2022-09-06T14:31:37;7.73;;;7.43;;
6386;SDS011;3226;42.162;24.756;2022-09-06T14:34:05;8.17;;;7.77;;
6386;SDS011;3226;42.162;24.756;2022-09-06T14:36:33;8.27;;;7.87;;
6386;SDS011;3226;42.162;24.756;2022-09-06T14:39:02;9.03;;;8.63;;
6386;SDS011;3226;42.162;24.756;2022-09-06T14:41:30;8.70;;;8.30;;
6386;SDS011;3226;42.162;24.756;2022-09-06T14:43:59;6.80;;;6.50;;
6386;SDS011;3226;42.162;24.756;2022-09-06T14:46:28;7.73;;;7.43;;
6386;SDS011;3226;42.162;24.756;2022-09-06T14:48:58;6.97;;;6.67;;
6386;SDS011;3226;42.162;24.756;2022-09-06T14:51:28;7.80;;;7.50;;
6386;SDS011;3226;42.162;24.756;2022-09-06T14:53:57;7.37;;;7.07;;
6386;SDS011;3226;42.162;24.756;2022-09-06T14:56:28;8.40;;;8.00;;
6386;SDS011;3226;42.162;24.756;2022-09-06T14:58:57;9.27;;;8.87;;
6386;SDS011;3226;42.162;24.756;2022-09-06T15:01:26;9.00;;;8.60;;
6386;SDS011;3226;42.162;24.756;2022-09-06T15:04:04;9.43;;;9.03;;
6386;SDS011;3226;42.162;24.756;2022-09-06T15:06:33;9.90;;;9.43;;
6386;SDS011;3226;42.162;24.756;2022-09-06T15:09:05;9.23;;;8.83;;
6386;SDS011;3226;42.162;24.756;2022-09-06T15:11:37;8.03;;;7.67;;
6386;SDS011;3226;42.162;24.756;2022-09-06T15:14:07;8.33;;;7.93;;
6386;SDS011;3226;42.162;24.756;2022-09-06T15:16:39;8.43;;;8.03;;
6386;SDS011;3226;42.162;24.756;2022-09-06T15:19:08;8.63;;;8.23;;
6386;SDS011;3226;42.162;24.756;2022-09-06T15:21:37;8.30;;;7.90;;
6386;SDS011;3226;42.162;24.756;2022-09-06T15:24:05;7.17;;;6.87;;
6386;SDS011;3226;42.162;24.756;2022-09-06T15:26:37;8.53;;;8.13;;
6386;SDS011;3226;42.162;24.756;2022-09-06T15:29:06;8.77;;;8.37;;
6386;SDS011;3226;42.162;24.756;2022-09-06T15:31:35;9.03;;;8.63;;
6386;SDS011;3226;42.162;24.756;2022-09-06T15:34:03;9.80;;;9.30;;
6386;SDS011;3226;42.162;24.756;2022-09-06T15:36:34;9.80;;;9.33;;
6386;SDS011;3226;42.162;24.756;2022-09-06T15:39:03;9.67;;;9.23;;
6386;SDS011;3226;42.162;24.756;2022-09-06T15:41:32;9.67;;;9.20;;
6386;SDS011;3226;42.162;24.756;2022-09-06T15:44:04;9.97;;;9.47;;
6386;SDS011;3226;42.162;24.756;2022-09-06T15:46:40;9.63;;;9.07;;
6386;SDS011;3226;42.162;24.756;2022-09-06T15:49:11;8.50;;;8.10;;
6386;SDS011;3226;42.162;24.756;2022-09-06T15:51:42;8.13;;;7.73;;
6386;SDS011;3226;42.162;24.756;2022-09-06T15:54:11;8.07;;;7.67;;